Time;durP1;ratioP1;P1;durP2;ratioP2;P2;SDS_P1;SDS_P2;PMS_P1;PMS_P2;Temp;Humidity;BMP_temperature;BMP_pressure;BME280_temperature;BME280_humidity;BME280_pressure;Samples;Min_cycle;Max_cycle;Signal;HPM_P1;HPM_P2
2021/05/03 00:02:00;;;;;;;9.70;7.30;;;3.40;99.90;;;;;;5033357;28;20422;-86
2021/05/03 00:04:26;;;;;;;9.18;7.50;;;3.30;99.90;;;;;;5034820;28;20431;-86
2021/05/03 00:06:52;;;;;;;8.50;7.20;;;3.30;99.90;;;;;;5033599;28;20433;-86
2021/05/03 00:09:19;;;;;;;8.65;7.70;;;3.20;99.90;;;;;;5033019;28;20498;-86
2021/05/03 00:11:46;;;;;;;8.40;7.60;;;3.20;99.90;;;;;;5032774;28;20418;-86
2021/05/03 00:14:12;;;;;;;9.48;8.10;;;3.20;99.90;;;;;;5031483;28;20816;-86
2021/05/03 00:16:39;;;;;;;10.50;7.28;;;3.10;99.90;;;;;;5032088;28;20445;-87
2021/05/03 00:19:06;;;;;;;10.05;8.27;;;3.10;99.90;;;;;;5033433;28;20422;-87
2021/05/03 00:21:33;;;;;;;10.13;8.25;;;3.00;99.90;;;;;;5035860;28;20426;-87
2021/05/03 00:23:59;;;;;;;9.68;8.23;;;3.00;99.90;;;;;;5035599;28;20427;-87
2021/05/03 00:26:25;;;;;;;9.80;8.10;;;2.90;99.90;;;;;;5036087;28;20423;-87
2021/05/03 00:28:52;;;;;;;10.13;8.00;;;2.90;99.90;;;;;;5035738;28;20427;-87
2021/05/03 00:31:18;;;;;;;9.75;8.18;;;2.90;99.90;;;;;;5035692;28;20533;-87
2021/05/03 00:33:45;;;;;;;10.18;8.50;;;2.90;99.90;;;;;;5035438;28;20446;-86
2021/05/03 00:36:12;;;;;;;12.32;9.20;;;2.90;99.90;;;;;;5035887;28;20423;-87
2021/05/03 00:38:38;;;;;;;12.68;9.38;;;2.90;99.90;;;;;;5046259;28;20430;-87
2021/05/03 00:41:05;;;;;;;12.85;9.00;;;2.90;99.90;;;;;;5035197;28;20435;-87
2021/05/03 00:43:32;;;;;;;10.60;9.30;;;2.80;99.90;;;;;;5035039;28;20455;-87
2021/05/03 00:45:58;;;;;;;10.80;9.02;;;2.80;99.90;;;;;;5017763;28;20484;-87
2021/05/03 00:48:25;;;;;;;11.73;10.00;;;2.80;99.90;;;;;;5035420;28;20431;-87
2021/05/03 00:50:52;;;;;;;13.23;11.13;;;2.80;99.90;;;;;;5034605;28;20418;-87
2021/05/03 00:53:19;;;;;;;11.30;10.10;;;2.80;99.90;;;;;;5033758;28;20423;-87
2021/05/03 00:55:46;;;;;;;12.65;10.00;;;2.80;99.90;;;;;;5034288;28;20429;-87
2021/05/03 00:58:14;;;;;;;12.60;11.07;;;2.70;99.90;;;;;;5034980;28;20921;-86
2021/05/03 01:00:41;;;;;;;14.48;11.07;;;2.70;99.90;;;;;;5034340;28;20447;-87
2021/05/03 01:03:08;;;;;;;11.77;10.38;;;2.70;99.90;;;;;;5053449;28;20431;-87
2021/05/03 01:05:35;;;;;;;11.30;9.98;;;2.60;99.90;;;;;;5051923;28;20429;-87
2021/05/03 01:08:03;;;;;;;11.82;10.63;;;2.70;99.90;;;;;;5020981;28;20784;-87
2021/05/03 01:10:31;;;;;;;15.52;11.38;;;2.60;99.90;;;;;;5035600;28;20431;-87
2021/05/03 01:12:59;;;;;;;11.75;10.38;;;2.60;99.90;;;;;;5017391;28;20426;-87
2021/05/03 01:15:26;;;;;;;13.52;11.02;;;2.60;99.90;;;;;;5035299;28;20427;-87
2021/05/03 01:17:56;;;;;;;12.20;10.38;;;2.60;99.90;;;;;;5034976;28;20430;-87
2021/05/03 01:20:23;;;;;;;14.82;11.95;;;2.50;99.90;;;;;;5034925;28;20439;-87
2021/05/03 01:22:54;;;;;;;11.00;9.88;;;2.50;99.90;;;;;;5033429;28;20783;-87
2021/05/03 01:25:21;;;;;;;14.10;10.90;;;2.40;99.90;;;;;;5035280;28;20507;-87
2021/05/03 01:27:48;;;;;;;13.63;11.43;;;2.40;99.90;;;;;;5033493;28;20430;-87
2021/05/03 01:30:15;;;;;;;12.40;11.20;;;2.40;99.90;;;;;;5034234;28;20494;-87
2021/05/03 01:32:42;;;;;;;15.57;11.35;;;2.40;99.90;;;;;;5032940;28;20427;-87
2021/05/03 01:35:10;;;;;;;15.75;11.75;;;2.40;99.90;;;;;;5034786;28;20430;-87
2021/05/03 01:37:36;;;;;;;17.38;11.80;;;2.30;99.90;;;;;;5034243;28;20435;-87
2021/05/03 01:40:05;;;;;;;13.55;11.23;;;2.30;99.90;;;;;;5034328;28;20431;-87
2021/05/03 01:42:31;;;;;;;15.15;11.05;;;2.30;99.90;;;;;;5033696;28;20481;-87
2021/05/03 01:45:00;;;;;;;14.38;11.38;;;2.30;99.90;;;;;;5033033;28;20992;-87
2021/05/03 01:47:27;;;;;;;13.75;11.27;;;2.30;99.90;;;;;;5034465;28;20777;-87
2021/05/03 01:49:53;;;;;;;12.80;11.30;;;2.40;99.90;;;;;;5034261;28;20437;-86
2021/05/03 01:52:20;;;;;;;14.68;12.77;;;2.40;99.90;;;;;;5033297;28;20419;-87
2021/05/03 01:54:47;;;;;;;14.20;12.18;;;2.50;99.90;;;;;;5032690;28;20431;-87
2021/05/03 01:57:16;;;;;;;13.73;11.00;;;2.50;99.90;;;;;;5034477;28;20483;-87
2021/05/03 01:59:44;;;;;;;12.15;10.75;;;2.50;99.90;;;;;;5033857;28;20794;-87
2021/05/03 02:02:10;;;;;;;14.70;11.48;;;2.50;99.90;;;;;;5034810;28;20468;-87
2021/05/03 02:04:37;;;;;;;15.30;11.93;;;2.60;99.90;;;;;;5056716;28;20417;-87
2021/05/03 02:07:03;;;;;;;13.35;10.77;;;2.50;99.90;;;;;;5057409;28;20415;-87
2021/05/03 02:09:30;;;;;;;12.93;10.93;;;2.60;99.90;;;;;;5058143;28;20491;-87
2021/05/03 02:11:56;;;;;;;14.10;11.45;;;2.60;99.90;;;;;;5057732;28;20521;-86
2021/05/03 02:14:23;;;;;;;12.50;11.20;;;2.60;99.90;;;;;;5053505;28;20419;-87
2021/05/03 02:16:50;;;;;;;13.98;11.93;;;2.60;99.90;;;;;;5052073;28;20434;-87
2021/05/03 02:19:16;;;;;;;13.48;10.88;;;2.50;99.90;;;;;;5051506;28;20407;-87
2021/05/03 02:21:43;;;;;;;14.73;12.25;;;2.40;99.90;;;;;;5051598;28;20423;-87
2021/05/03 02:24:10;;;;;;;14.13;12.63;;;2.50;99.90;;;;;;5050763;28;20423;-87
2021/05/03 02:26:37;;;;;;;14.98;11.80;;;2.50;99.90;;;;;;5038545;28;20791;-86
2021/05/03 02:29:03;;;;;;;18.83;12.57;;;2.50;99.90;;;;;;5033770;28;20423;-86
2021/05/03 02:31:31;;;;;;;15.90;11.93;;;2.50;99.90;;;;;;5034091;28;20437;-87
2021/05/03 02:33:57;;;;;;;16.67;12.77;;;2.60;99.90;;;;;;5035810;28;20415;-87
2021/05/03 02:36:24;;;;;;;12.68;11.05;;;2.60;99.90;;;;;;5044828;28;20411;-87
2021/05/03 02:38:50;;;;;;;16.80;12.10;;;2.60;99.90;;;;;;5039856;28;20434;-86
2021/05/03 02:41:17;;;;;;;17.42;12.32;;;2.60;99.90;;;;;;5033332;28;20442;-87
2021/05/03 02:43:45;;;;;;;13.98;11.30;;;2.60;99.90;;;;;;5032976;28;20426;-87
2021/05/03 02:46:12;;;;;;;13.95;12.20;;;2.60;99.90;;;;;;5033137;28;20422;-86
2021/05/03 02:48:41;;;;;;;14.73;12.50;;;2.70;99.90;;;;;;5033317;28;20510;-86
2021/05/03 02:51:07;;;;;;;13.80;11.15;;;2.60;99.90;;;;;;5031872;28;20434;-87
2021/05/03 02:53:34;;;;;;;14.18;11.95;;;2.60;99.90;;;;;;5033077;28;20430;-87
2021/05/03 02:56:00;;;;;;;14.43;11.50;;;2.60;99.90;;;;;;5032396;28;20422;-86
2021/05/03 02:58:27;;;;;;;15.55;12.85;;;2.60;99.90;;;;;;5032600;28;20871;-87
2021/05/03 03:00:53;;;;;;;17.00;12.35;;;2.50;99.90;;;;;;5031623;28;20439;-87
2021/05/03 03:03:20;;;;;;;14.90;12.43;;;2.50;99.90;;;;;;5032346;28;20431;-86
2021/05/03 03:05:47;;;;;;;14.98;12.50;;;2.50;99.90;;;;;;5033099;28;20435;-87
2021/05/03 03:08:13;;;;;;;15.38;12.30;;;2.50;99.90;;;;;;5032948;28;20787;-86
2021/05/03 03:10:40;;;;;;;17.08;13.45;;;2.50;99.90;;;;;;5032776;28;20434;-87
2021/05/03 03:13:06;;;;;;;14.57;11.57;;;2.50;99.90;;;;;;5038053;28;20422;-87
2021/05/03 03:15:34;;;;;;;14.57;12.02;;;2.40;99.90;;;;;;5032074;28;20411;-86
2021/05/03 03:18:04;;;;;;;14.70;11.77;;;2.40;99.90;;;;;;5031941;28;20427;-87
2021/05/03 03:20:30;;;;;;;16.85;13.27;;;2.30;99.90;;;;;;5032117;28;20937;-87
2021/05/03 03:22:58;;;;;;;13.10;11.70;;;2.30;99.90;;;;;;5032486;28;20426;-87
2021/05/03 03:25:25;;;;;;;15.23;12.00;;;2.30;99.90;;;;;;5032890;28;20419;-87
2021/05/03 03:27:51;;;;;;;14.50;12.10;;;2.20;99.90;;;;;;5031899;28;20431;-87
2021/05/03 03:30:18;;;;;;;17.87;13.57;;;2.20;99.90;;;;;;5032006;28;20414;-87
2021/05/03 03:32:45;;;;;;;14.00;12.55;;;2.20;99.90;;;;;;5031502;28;20431;-87
2021/05/03 03:35:13;;;;;;;14.27;12.73;;;2.30;99.90;;;;;;5032038;28;20423;-87
2021/05/03 03:37:40;;;;;;;15.73;12.90;;;2.30;99.90;;;;;;5035713;28;20434;-87
2021/05/03 03:40:09;;;;;;;19.95;17.38;;;2.30;99.90;;;;;;5034191;28;20431;-87
2021/05/03 03:42:35;;;;;;;30.10;22.17;;;2.30;99.90;;;;;;5034094;28;20441;-87
2021/05/03 03:45:02;;;;;;;19.13;15.75;;;2.30;99.90;;;;;;5032396;28;20427;-86
2021/05/03 03:47:29;;;;;;;24.10;19.50;;;2.30;99.90;;;;;;5014975;28;20419;-86
2021/05/03 03:49:55;;;;;;;31.27;25.10;;;2.30;99.90;;;;;;5031848;28;20430;-87
2021/05/03 03:52:23;;;;;;;19.92;16.65;;;2.30;99.90;;;;;;5034172;28;20437;-86
2021/05/03 03:54:49;;;;;;;80.37;52.23;;;2.30;99.90;;;;;;5038143;28;20435;-86
2021/05/03 03:57:17;;;;;;;54.40;38.35;;;2.30;99.90;;;;;;5046033;28;20419;-85
2021/05/03 03:59:45;;;;;;;158.38;110.00;;;2.20;99.90;;;;;;5049379;28;20451;-85
2021/05/03 04:02:12;;;;;;;218.00;150.70;;;2.20;99.90;;;;;;5030742;28;20415;-86
2021/05/03 04:04:39;;;;;;;195.05;161.25;;;2.20;99.90;;;;;;5037787;28;20426;-86
2021/05/03 04:07:11;;;;;;;50.58;45.08;;;2.30;99.90;;;;;;5037593;28;20517;-86
2021/05/03 04:09:42;;;;;;;23.60;21.30;;;2.20;99.90;;;;;;5037352;28;20436;-86
2021/05/03 04:12:29;;;;;;;15.98;14.00;;;2.20;99.90;;;;;;5004694;28;20480;-86
2021/05/03 04:23:43;;;;;;;15.23;13.63;;;2.30;99.90;;;;;;5035868;28;20440;-86
2021/05/03 04:26:09;;;;;;;17.85;14.63;;;2.30;99.90;;;;;;5034795;28;20478;-86
2021/05/03 04:28:35;;;;;;;16.45;14.70;;;2.30;99.90;;;;;;5036045;28;21175;-86
2021/05/03 04:31:03;;;;;;;16.70;14.27;;;2.30;99.90;;;;;;5035319;28;20477;-86
2021/05/03 04:33:29;;;;;;;16.02;13.32;;;2.30;99.90;;;;;;5034534;28;20423;-86
2021/05/03 04:35:55;;;;;;;15.57;13.98;;;2.30;99.90;;;;;;5036058;28;20434;-86
2021/05/03 04:38:21;;;;;;;17.75;13.95;;;2.30;99.90;;;;;;5035539;28;20464;-86
2021/05/03 04:40:48;;;;;;;18.02;14.82;;;2.30;99.90;;;;;;5036196;28;20435;-86
2021/05/03 04:43:14;;;;;;;19.90;15.43;;;2.40;99.90;;;;;;5035987;28;20442;-86
2021/05/03 04:45:41;;;;;;;16.30;14.60;;;2.40;99.90;;;;;;5036741;28;20419;-86
2021/05/03 04:48:08;;;;;;;15.57;13.98;;;2.40;99.90;;;;;;5035737;28;20431;-86
2021/05/03 04:50:35;;;;;;;17.92;14.65;;;2.50;99.90;;;;;;5035870;28;20894;-86
2021/05/03 04:53:03;;;;;;;15.32;13.38;;;2.60;99.90;;;;;;5035409;28;20510;-86
2021/05/03 04:55:29;;;;;;;15.07;12.25;;;2.60;99.90;;;;;;5035751;28;20480;-86
2021/05/03 04:57:55;;;;;;;14.70;13.20;;;2.70;99.90;;;;;;5035354;28;20775;-87
2021/05/03 05:00:23;;;;;;;15.50;13.52;;;2.80;99.90;;;;;;5035461;28;20423;-86
2021/05/03 05:02:49;;;;;;;16.00;14.40;;;2.90;99.90;;;;;;5033216;28;20422;-86
2021/05/03 05:05:16;;;;;;;17.38;13.88;;;3.10;99.90;;;;;;5034629;28;20435;-86
2021/05/03 05:07:43;;;;;;;14.57;13.07;;;3.20;99.90;;;;;;5034827;28;20419;-87
2021/05/03 05:10:11;;;;;;;15.90;13.60;;;3.30;99.90;;;;;;5034821;28;20454;-86
2021/05/03 05:12:38;;;;;;;14.90;13.40;;;3.30;99.90;;;;;;5035316;28;20790;-86
2021/05/03 05:15:06;;;;;;;16.88;13.98;;;3.40;99.90;;;;;;5017913;28;21019;-86
2021/05/03 05:17:33;;;;;;;15.18;13.68;;;3.50;99.90;;;;;;5033278;28;20426;-87
2021/05/03 05:20:01;;;;;;;17.05;14.02;;;3.70;99.90;;;;;;5034723;28;20431;-86
2021/05/03 05:22:28;;;;;;;15.00;13.48;;;3.80;99.90;;;;;;5034756;28;20430;-86
2021/05/03 05:24:54;;;;;;;14.38;12.80;;;3.90;99.90;;;;;;5033316;28;20770;-86
2021/05/03 05:27:21;;;;;;;14.98;13.32;;;4.10;99.90;;;;;;5034999;28;20427;-86
2021/05/03 05:29:47;;;;;;;13.98;12.50;;;4.20;99.90;;;;;;5034321;28;20423;-86
2021/05/03 05:32:14;;;;;;;13.27;11.88;;;4.40;99.90;;;;;;5034941;28;20786;-86
2021/05/03 05:34:40;;;;;;;13.55;11.98;;;4.60;99.90;;;;;;5032912;28;20434;-87
2021/05/03 05:37:06;;;;;;;12.97;11.17;;;4.80;99.90;;;;;;5034722;28;20407;-86
2021/05/03 05:39:34;;;;;;;12.95;10.57;;;4.90;99.90;;;;;;5035845;28;20867;-87
2021/05/03 05:42:00;;;;;;;14.85;10.77;;;5.10;99.90;;;;;;5035562;28;20411;-86
2021/05/03 05:44:27;;;;;;;10.90;9.43;;;5.10;99.90;;;;;;5036346;28;20439;-87
2021/05/03 05:46:55;;;;;;;9.65;8.65;;;5.20;99.90;;;;;;5037693;28;20921;-88
2021/05/03 05:49:22;;;;;;;12.23;9.90;;;5.30;99.90;;;;;;5052335;28;20463;-87
2021/05/03 05:51:48;;;;;;;12.45;9.70;;;5.40;99.90;;;;;;5058805;28;20490;-86
2021/05/03 05:54:14;;;;;;;11.82;8.88;;;5.60;99.90;;;;;;5058856;28;20466;-87
2021/05/03 05:56:43;;;;;;;10.25;9.15;;;5.60;99.90;;;;;;5058771;28;20443;-88
2021/05/03 05:59:09;;;;;;;10.13;9.02;;;5.80;99.90;;;;;;5058184;28;20437;-88
2021/05/03 06:01:36;;;;;;;10.23;8.40;;;5.90;99.90;;;;;;5047034;28;21124;-89
2021/05/03 06:04:03;;;;;;;11.32;8.82;;;5.90;99.90;;;;;;5034555;28;20422;-88
2021/05/03 06:06:29;;;;;;;11.63;8.43;;;6.00;99.90;;;;;;5034409;28;20432;-87
2021/05/03 06:08:56;;;;;;;12.57;8.55;;;6.10;99.90;;;;;;5033950;28;20434;-87
2021/05/03 06:11:22;;;;;;;10.30;8.30;;;6.20;99.90;;;;;;5033916;28;20426;-87
2021/05/03 06:13:49;;;;;;;11.15;7.70;;;6.50;99.90;;;;;;5034346;28;20423;-87
2021/05/03 06:16:15;;;;;;;10.77;8.43;;;6.70;99.90;;;;;;5033332;28;20455;-88
2021/05/03 06:18:44;;;;;;;8.48;7.15;;;6.90;99.90;;;;;;5039481;28;20419;-88
2021/05/03 06:21:10;;;;;;;8.57;7.00;;;7.10;99.90;;;;;;5018482;28;20435;-88
2021/05/03 06:23:37;;;;;;;7.90;6.97;;;7.40;99.90;;;;;;5031799;28;20973;-88
2021/05/03 06:26:03;;;;;;;9.50;7.13;;;7.50;99.90;;;;;;5034009;28;20513;-88
2021/05/03 06:28:29;;;;;;;9.13;6.50;;;7.60;99.90;;;;;;5034157;28;20431;-89
2021/05/03 06:30:57;;;;;;;9.77;7.10;;;7.60;99.90;;;;;;5033457;28;20423;-89
2021/05/03 06:33:25;;;;;;;8.70;7.10;;;7.60;99.90;;;;;;5031374;28;20430;-88
2021/05/03 06:35:52;;;;;;;10.00;6.97;;;7.70;99.90;;;;;;5031500;28;20542;-89
2021/05/03 06:38:18;;;;;;;11.13;7.00;;;7.90;99.90;;;;;;5033550;28;20419;-89
2021/05/03 06:40:45;;;;;;;8.93;6.85;;;8.00;99.90;;;;;;5032525;28;20466;-89
2021/05/03 06:43:14;;;;;;;8.43;6.83;;;8.10;99.90;;;;;;5032106;28;20437;-88
2021/05/03 06:45:42;;;;;;;9.90;6.50;;;8.10;99.90;;;;;;5034951;28;20454;-90
2021/05/03 06:48:10;;;;;;;8.85;7.28;;;8.30;99.90;;;;;;5050134;28;20486;-89
2021/05/03 06:50:37;;;;;;;8.20;6.70;;;8.30;99.90;;;;;;5047999;28;20442;-91
2021/05/03 06:53:04;;;;;;;10.35;6.50;;;8.40;99.90;;;;;;5037235;28;20486;-89
2021/05/03 06:55:31;;;;;;;8.23;6.50;;;8.20;99.90;;;;;;5036709;28;20457;-89
2021/05/03 06:57:57;;;;;;;9.93;6.50;;;8.20;99.90;;;;;;5035121;28;20435;-92
2021/05/03 07:00:25;;;;;;;9.70;7.05;;;8.20;99.90;;;;;;5038769;28;20438;-91
2021/05/03 07:02:53;;;;;;;7.03;5.97;;;8.20;99.90;;;;;;5041133;28;20435;-91
2021/05/03 07:05:20;;;;;;;8.05;6.10;;;8.30;99.90;;;;;;5037405;28;20470;-91
2021/05/03 07:07:47;;;;;;;7.40;5.60;;;8.40;99.90;;;;;;5042709;28;20431;-91
2021/05/03 07:10:15;;;;;;;10.07;6.88;;;8.30;99.90;;;;;;5038435;28;20551;-91
2021/05/03 07:12:45;;;;;;;8.73;5.80;;;8.30;99.90;;;;;;5033635;28;20831;-91
2021/05/03 07:15:12;;;;;;;8.18;6.45;;;8.20;99.90;;;;;;5033760;28;21695;-91
2021/05/03 07:17:39;;;;;;;8.80;6.30;;;8.30;99.90;;;;;;5019361;28;20556;-91
2021/05/03 07:20:07;;;;;;;7.72;5.55;;;8.40;99.90;;;;;;5037517;28;20457;-90
2021/05/03 07:22:36;;;;;;;7.60;6.10;;;8.40;99.90;;;;;;5035004;28;20415;-91
2021/05/03 07:25:04;;;;;;;10.27;6.82;;;8.40;99.90;;;;;;5033801;28;20519;-91
2021/05/03 07:27:31;;;;;;;8.40;6.30;;;8.40;99.90;;;;;;5033397;28;20461;-92
2021/05/03 07:29:57;;;;;;;7.10;5.78;;;8.40;99.90;;;;;;5031422;28;20438;-91
2021/05/03 07:32:24;;;;;;;8.35;6.05;;;8.50;99.90;;;;;;5025697;28;20581;-93
2021/05/03 07:34:51;;;;;;;7.15;6.10;;;8.60;99.90;;;;;;5033768;28;20434;-91
2021/05/03 07:37:20;;;;;;;9.63;5.87;;;8.70;99.90;;;;;;5035014;28;20779;-91
2021/05/03 07:39:47;;;;;;;8.53;5.90;;;8.80;99.90;;;;;;5033720;28;20426;-89
2021/05/03 07:42:13;;;;;;;9.75;5.93;;;8.90;99.90;;;;;;5033501;28;20964;-91
2021/05/03 07:44:40;;;;;;;7.85;6.00;;;9.10;99.90;;;;;;5033543;28;20458;-90
2021/05/03 07:47:07;;;;;;;7.72;6.00;;;9.10;99.90;;;;;;5033461;28;20779;-91
2021/05/03 07:49:33;;;;;;;9.20;5.28;;;9.20;99.90;;;;;;5039552;28;20466;-89
2021/05/03 07:52:00;;;;;;;7.38;5.00;;;9.20;99.90;;;;;;5050546;28;20434;-91
2021/05/03 07:54:26;;;;;;;8.15;4.90;;;9.30;99.90;;;;;;5042584;28;20419;-91
2021/05/03 07:56:54;;;;;;;5.93;4.80;;;9.30;99.90;;;;;;5034365;28;20768;-90
2021/05/03 07:59:22;;;;;;;6.93;4.20;;;9.40;99.90;;;;;;5033801;28;20444;-92
2021/05/03 08:01:48;;;;;;;7.07;4.23;;;9.60;99.90;;;;;;5029119;28;20976;-91
2021/05/03 08:04:16;;;;;;;7.40;5.10;;;9.60;99.90;;;;;;5033226;28;20430;-92
2021/05/03 08:06:43;;;;;;;4.63;3.70;;;9.70;99.90;;;;;;5034042;28;20829;-92
2021/05/03 08:09:10;;;;;;;6.20;4.30;;;9.70;99.90;;;;;;5035888;28;20444;-91
2021/05/03 08:11:43;;;;;;;6.57;4.38;;;9.70;99.90;;;;;;5036985;28;20438;-94
2021/05/03 08:14:15;;;;;;;5.13;3.92;;;9.70;99.90;;;;;;5050660;28;20431;-90
2021/05/03 08:16:41;;;;;;;5.78;4.07;;;9.70;99.90;;;;;;5050525;28;20494;-92
2021/05/03 08:19:08;;;;;;;5.65;3.88;;;9.80;99.90;;;;;;5042523;28;20453;-92
2021/05/03 08:21:35;;;;;;;6.28;3.72;;;9.90;99.90;;;;;;5035288;28;20520;-92
2021/05/03 08:24:02;;;;;;;6.95;4.22;;;10.10;99.90;;;;;;5034457;28;20427;-90
2021/05/03 08:26:30;;;;;;;5.53;3.95;;;10.20;99.90;;;;;;5034635;28;20427;-90
2021/05/03 08:28:56;;;;;;;5.65;3.88;;;10.20;99.90;;;;;;5044990;28;20423;-91
2021/05/03 08:31:24;;;;;;;6.53;3.80;;;10.30;99.90;;;;;;5042233;28;20430;-91
2021/05/03 08:33:51;;;;;;;4.30;3.28;;;10.30;99.90;;;;;;5034501;28;20430;-91
2021/05/03 08:36:17;;;;;;;4.43;3.10;;;10.40;99.90;;;;;;5034746;28;20771;-91
2021/05/03 08:38:44;;;;;;;5.15;3.88;;;10.60;99.90;;;;;;5038600;28;20445;-93
2021/05/03 08:41:13;;;;;;;7.93;4.82;;;10.70;99.90;;;;;;5041851;28;20434;-92
2021/05/03 08:43:41;;;;;;;5.50;4.50;;;10.80;99.90;;;;;;5037892;28;20484;-91
2021/05/03 08:46:09;;;;;;;6.18;4.82;;;11.00;99.90;;;;;;5035629;28;20419;-89
2021/05/03 08:48:41;;;;;;;8.45;4.32;;;11.00;99.90;;;;;;5037003;28;20430;-91
2021/05/03 08:51:14;;;;;;;6.82;5.40;;;11.00;99.90;;;;;;5030489;28;20460;-90
2021/05/03 08:53:43;;;;;;;7.07;5.53;;;11.00;99.90;;;;;;5036347;28;20426;-91
2021/05/03 08:56:10;;;;;;;6.30;4.65;;;11.10;99.90;;;;;;5037580;28;20423;-91
2021/05/03 08:58:38;;;;;;;8.57;5.72;;;11.10;99.90;;;;;;5039515;28;20427;-90
2021/05/03 09:01:06;;;;;;;8.27;5.53;;;11.10;99.90;;;;;;5028956;28;20439;-90
2021/05/03 09:03:37;;;;;;;8.73;6.30;;;11.20;99.90;;;;;;5035841;28;20503;-90
2021/05/03 09:06:04;;;;;;;8.80;6.97;;;11.30;99.90;;;;;;5035895;28;20423;-91
2021/05/03 09:08:32;;;;;;;9.00;6.18;;;11.40;99.90;;;;;;5035942;28;20431;-91
2021/05/03 09:10:59;;;;;;;8.03;6.57;;;11.40;99.90;;;;;;5037374;28;20488;-91
2021/05/03 09:13:29;;;;;;;7.38;6.30;;;11.30;99.90;;;;;;5039116;28;20431;-91
2021/05/03 09:16:14;;;;;;;8.88;6.70;;;11.50;99.90;;;;;;5055549;28;20427;-93
2021/05/03 09:18:42;;;;;;;9.05;6.50;;;11.60;99.90;;;;;;5055718;28;20415;-89
2021/05/03 09:21:18;;;;;;;9.97;5.97;;;11.40;99.90;;;;;;5041820;28;20433;-93
2021/05/03 09:24:01;;;;;;;8.35;6.75;;;11.60;99.90;;;;;;5044758;28;20426;-90
2021/05/03 09:26:40;;;;;;;9.30;6.40;;;11.50;99.90;;;;;;5040724;28;20476;-89
2021/05/03 09:29:29;;;;;;;7.90;6.10;;;11.50;99.90;;;;;;5037070;28;20449;-93
2021/05/03 09:32:03;;;;;;;8.30;5.60;;;11.70;99.90;;;;;;5054293;28;20471;-92
2021/05/03 09:34:33;;;;;;;8.00;5.40;;;11.90;99.90;;;;;;5058862;28;20419;-91
2021/05/03 09:37:16;;;;;;;7.75;5.70;;;12.00;99.90;;;;;;5059493;28;20428;-93
2021/05/03 09:39:43;;;;;;;12.43;5.90;;;12.20;99.90;;;;;;5140435;22;20392;-92
2021/05/03 09:42:09;;;;;;;6.80;4.93;;;12.30;99.90;;;;;;5033496;28;20539;-94
2021/05/03 09:44:37;;;;;;;8.40;6.05;;;12.50;99.90;;;;;;5029481;28;20435;-93
2021/05/03 09:47:04;;;;;;;6.85;5.90;;;12.50;99.90;;;;;;5027643;28;20433;-92
2021/05/03 09:49:35;;;;;;;8.13;5.93;;;12.70;99.90;;;;;;5028215;28;20440;-93
2021/05/03 09:52:10;;;;;;;8.75;5.85;;;12.80;99.90;;;;;;5026452;28;20460;-93
2021/05/03 09:54:37;;;;;;;8.03;5.70;;;12.90;99.90;;;;;;5021975;28;20432;-92
2021/05/03 09:57:07;;;;;;;8.93;6.10;;;13.00;99.90;;;;;;5022238;28;20827;-92
2021/05/03 09:59:40;;;;;;;8.00;5.17;;;12.90;99.90;;;;;;5024334;28;20484;-90
2021/05/03 10:02:10;;;;;;;10.43;6.40;;;12.70;99.90;;;;;;5025377;28;20462;-89
2021/05/03 10:04:38;;;;;;;8.13;5.40;;;12.90;99.90;;;;;;5021942;28;20429;-88
2021/05/03 10:09:51;;;;;;;7.13;5.18;;;13.30;99.90;;;;;;5018921;28;20425;-90
2021/05/03 10:15:15;;;;;;;7.60;5.88;;;12.90;99.90;;;;;;5024563;28;20412;-90
2021/05/03 10:17:57;;;;;;;8.60;6.10;;;13.10;99.90;;;;;;5026044;28;20788;-90
2021/05/03 10:20:26;;;;;;;7.13;5.40;;;13.40;99.90;;;;;;5026725;28;20516;-90
2021/05/03 10:22:55;;;;;;;7.00;5.20;;;13.40;99.90;;;;;;5024801;28;20440;-89
2021/05/03 10:25:23;;;;;;;6.07;5.45;;;13.50;99.90;;;;;;5022662;28;20520;-93
2021/05/03 10:27:52;;;;;;;7.90;5.70;;;13.40;99.90;;;;;;5030859;28;20452;-90
2021/05/03 10:30:21;;;;;;;7.78;5.13;;;13.50;99.90;;;;;;5025583;28;20448;-90
2021/05/03 10:33:01;;;;;;;7.22;5.65;;;13.70;99.90;;;;;;5022406;28;20464;-89
2021/05/03 10:35:30;;;;;;;7.25;5.57;;;13.70;99.90;;;;;;5022280;28;20459;-90
2021/05/03 10:37:59;;;;;;;9.20;5.90;;;13.80;99.90;;;;;;5023452;28;20783;-90
2021/05/03 10:43:42;;;;;;;7.80;5.53;;;14.00;99.90;;;;;;5019097;28;20420;-89
2021/05/03 10:49:50;;;;;;;7.88;5.78;;;14.20;99.90;;;;;;5019369;28;20420;-93
2021/05/03 10:52:32;;;;;;;10.40;5.70;;;13.80;99.90;;;;;;5024541;28;20507;-90
2021/05/03 10:55:19;;;;;;;10.30;6.78;;;14.20;99.90;;;;;;5020354;28;20425;-90
2021/05/03 10:57:58;;;;;;;7.85;5.80;;;14.20;99.90;;;;;;5016683;28;20490;-90
2021/05/03 11:00:33;;;;;;;8.98;6.20;;;14.30;99.90;;;;;;5019578;28;20416;-90
2021/05/03 11:03:00;;;;;;;6.70;5.70;;;14.50;99.90;;;;;;4994352;28;20514;-90
2021/05/03 11:05:27;;;;;;;6.97;5.95;;;14.70;99.90;;;;;;5012674;28;20424;-90
2021/05/03 11:08:23;;;;;;;6.50;5.60;;;14.70;99.90;;;;;;5016016;28;20436;-91
2021/05/03 11:11:32;;;;;;;7.82;5.80;;;14.70;99.90;;;;;;5015801;28;20428;-91
2021/05/03 11:14:10;;;;;;;7.40;6.30;;;15.10;99.90;;;;;;5015078;28;20452;-89
2021/05/03 11:17:08;;;;;;;6.25;5.30;;;14.60;99.90;;;;;;5019445;28;20428;-90
2021/05/03 11:19:53;;;;;;;8.05;6.38;;;14.60;99.90;;;;;;5003938;28;20447;-91
2021/05/03 11:22:23;;;;;;;7.70;5.90;;;14.80;99.90;;;;;;5014803;28;20791;-90
2021/05/03 11:24:54;;;;;;;6.60;5.50;;;15.10;99.90;;;;;;5014837;28;20516;-89
2021/05/03 11:27:36;;;;;;;7.72;5.05;;;14.90;99.90;;;;;;5015307;28;20439;-89
2021/05/03 11:30:09;;;;;;;6.00;5.30;;;14.60;99.90;;;;;;5015018;28;20433;-89
2021/05/03 11:32:37;;;;;;;6.60;5.20;;;14.60;99.90;;;;;;5015027;28;20938;-89
2021/05/03 11:35:15;;;;;;;8.07;5.30;;;14.40;99.90;;;;;;5014938;28;20435;-90
2021/05/03 11:37:45;;;;;;;6.93;5.88;;;14.60;99.90;;;;;;5015442;28;20433;-90
2021/05/03 11:40:23;;;;;;;7.43;5.60;;;14.50;99.90;;;;;;5017157;28;20524;-90
2021/05/03 11:45:32;;;;;;;6.68;5.30;;;14.90;99.90;;;;;;5014436;28;20417;-90
2021/05/03 11:48:00;;;;;;;8.15;6.00;;;15.40;99.90;;;;;;5014385;28;20432;-91
2021/05/03 11:50:29;;;;;;;8.68;6.55;;;15.20;99.90;;;;;;5014751;28;20432;-90
2021/05/03 11:52:56;;;;;;;8.27;6.38;;;15.20;99.90;;;;;;5016186;28;20421;-91
2021/05/03 11:55:25;;;;;;;7.80;6.20;;;15.20;99.90;;;;;;5018531;28;20417;-90
2021/05/03 11:57:53;;;;;;;6.85;5.60;;;15.50;99.90;;;;;;5015624;28;20425;-92
2021/05/03 12:00:22;;;;;;;6.95;5.60;;;16.00;99.90;;;;;;5016463;28;20425;-92
2021/05/03 12:03:05;;;;;;;7.83;6.40;;;16.60;99.90;;;;;;5017394;28;20436;-92
2021/05/03 12:05:32;;;;;;;7.20;6.50;;;16.90;99.90;;;;;;5017422;28;20433;-91
2021/05/03 12:08:12;;;;;;;10.40;6.45;;;16.80;99.90;;;;;;5015539;28;20943;-91
2021/05/03 12:10:39;;;;;;;8.02;6.38;;;16.70;99.90;;;;;;5017101;28;20436;-91
2021/05/03 12:13:14;;;;;;;8.82;7.20;;;16.90;99.90;;;;;;5016940;28;20478;-91
2021/05/03 12:15:40;;;;;;;8.30;7.20;;;16.30;99.90;;;;;;5019872;28;20436;-92
2021/05/03 12:18:07;;;;;;;8.80;7.55;;;16.10;99.90;;;;;;5019195;28;20436;-91
2021/05/03 12:20:34;;;;;;;8.00;6.47;;;16.50;99.90;;;;;;5022148;28;20440;-90
2021/05/03 12:23:04;;;;;;;8.10;6.22;;;16.40;99.90;;;;;;5029055;28;20447;-90
2021/05/03 12:25:38;;;;;;;8.70;6.63;;;16.50;99.90;;;;;;5038823;28;20412;-89
2021/05/03 12:28:09;;;;;;;8.70;6.38;;;16.30;99.90;;;;;;5038313;28;20440;-90
2021/05/03 12:30:36;;;;;;;9.95;6.88;;;16.30;99.90;;;;;;5027490;28;20524;-89
2021/05/03 12:33:08;;;;;;;11.63;7.00;;;15.60;99.90;;;;;;5027852;28;20500;-89
2021/05/03 12:35:34;;;;;;;9.52;6.22;;;15.30;99.90;;;;;;5027056;28;20416;-90
2021/05/03 12:38:13;;;;;;;8.02;7.03;;;15.10;99.90;;;;;;5023392;28;20426;-90
2021/05/03 12:40:40;;;;;;;8.35;6.95;;;14.90;99.90;;;;;;5020537;28;20460;-88
2021/05/03 12:43:07;;;;;;;10.48;7.53;;;14.60;99.90;;;;;;5024212;28;20425;-89
2021/05/03 12:48:25;;;;;;;25.48;7.38;;;13.90;99.90;;;;;;5017832;28;20412;-90
2021/05/03 12:56:36;;;;;;;7.68;6.28;;;14.40;99.90;;;;;;5018769;28;20425;-89
2021/05/03 12:59:10;;;;;;;7.67;6.40;;;14.80;99.90;;;;;;5018970;28;20831;-91
2021/05/03 13:02:00;;;;;;;10.85;6.78;;;14.60;99.90;;;;;;5039928;28;20434;-90
2021/05/03 13:04:34;;;;;;;8.88;7.05;;;14.30;99.90;;;;;;5035916;28;20444;-88
2021/05/03 13:10:01;;;;;;;7.68;6.20;;;14.10;99.90;;;;;;5031559;28;20484;-89
2021/05/03 13:29:42;;;;;;;7.77;6.40;;;15.30;99.90;;;;;;5017685;28;20474;-90
2021/05/03 13:32:11;;;;;;;9.67;6.63;;;16.50;99.90;;;;;;5017013;28;20424;-87
2021/05/03 13:34:38;;;;;;;8.45;7.20;;;16.40;99.90;;;;;;5013206;28;20444;-86
2021/05/03 13:37:06;;;;;;;8.93;7.63;;;16.30;99.90;;;;;;5016801;28;20472;-86
2021/05/03 13:39:33;;;;;;;10.40;7.50;;;16.00;99.90;;;;;;5018182;28;20432;-86
2021/05/03 13:42:00;;;;;;;9.60;7.88;;;15.60;99.90;;;;;;5020825;28;20440;-86
2021/05/03 13:44:26;;;;;;;8.65;7.40;;;15.30;99.90;;;;;;5019256;28;20435;-86
2021/05/03 13:46:54;;;;;;;7.90;7.05;;;15.20;99.90;;;;;;5016560;28;20429;-85